createdAt,value
2022-11-10T00:02:09.808Z,96.53
2022-11-10T00:07:12.634Z,96.57
2022-11-10T00:12:15.509Z,96.64
2022-11-10T00:17:19.599Z,97.07
2022-11-10T00:22:25.923Z,96.94
2022-11-10T00:27:28.917Z,97.17
2022-11-10T00:32:33.179Z,97.34
2022-11-10T00:37:35.916Z,97.48
2022-11-10T00:42:38.654Z,97.98
2022-11-10T00:47:42.707Z,98.53
2022-11-10T00:52:45.434Z,98.88
2022-11-10T00:57:48.151Z,99.06
2022-11-10T01:02:52.228Z,99.23
2022-11-10T01:07:54.963Z,99.38
2022-11-10T01:12:57.690Z,99.64
2022-11-10T01:18:01.769Z,99.63
2022-11-10T01:23:04.529Z,99.68
2022-11-10T01:28:07.235Z,99.68
2022-11-10T01:33:11.293Z,100.00
2022-11-10T01:38:14.006Z,100.00
2022-11-10T01:43:16.739Z,100.00
2022-11-10T01:48:31.025Z,100.00
2022-11-10T01:53:37.767Z,100.00
2022-11-10T01:58:44.287Z,100.00
2022-11-10T02:03:51.364Z,100.00
2022-11-10T02:08:55.689Z,100.00
2022-11-10T02:13:58.940Z,100.00
2022-11-10T02:19:15.974Z,100.00
2022-11-10T02:24:20.300Z,100.00
2022-11-10T02:29:24.480Z,100.00
2022-11-10T02:34:27.213Z,100.00
2022-11-10T02:39:31.429Z,100.00
2022-11-10T02:44:34.150Z,100.00
2022-11-10T02:49:36.870Z,100.00
2022-11-10T02:54:40.985Z,100.00
2022-11-10T02:59:43.709Z,100.00
2022-11-10T03:04:46.430Z,100.00
2022-11-10T03:09:50.552Z,100.00
2022-11-10T03:14:53.263Z,100.00
2022-11-10T03:19:55.974Z,100.00
2022-11-10T03:25:00.273Z,100.00
2022-11-10T03:30:03.047Z,100.00
2022-11-10T03:35:06.192Z,100.00
2022-11-10T03:40:11.637Z,100.00
2022-11-10T03:45:16.082Z,100.00
2022-11-10T03:50:19.077Z,100.00
2022-11-10T03:55:23.156Z,100.00
2022-11-10T04:00:25.897Z,100.00
2022-11-10T04:05:46.220Z,100.00
2022-11-10T04:10:50.872Z,100.00
2022-11-10T04:15:53.929Z,100.00
2022-11-10T04:20:58.127Z,100.00
2022-11-10T04:26:21.841Z,100.00
2022-11-10T04:31:26.410Z,100.00
2022-11-10T04:36:31.249Z,100.00
2022-11-10T04:41:36.112Z,100.00
2022-11-10T04:46:40.865Z,100.00
2022-11-10T04:51:43.700Z,100.00
2022-11-10T04:56:47.823Z,100.00
2022-11-10T05:01:50.564Z,100.00
2022-11-10T05:06:53.923Z,100.00
2022-11-10T05:11:58.054Z,100.00
2022-11-10T05:17:00.764Z,100.00
2022-11-10T05:22:03.487Z,100.00
2022-11-10T05:27:08.403Z,100.00
2022-11-10T05:32:11.131Z,100.00
2022-11-10T05:37:13.860Z,100.00
2022-11-10T05:42:17.916Z,100.00
2022-11-10T05:47:20.644Z,100.00
2022-11-10T05:52:23.359Z,100.00
2022-11-10T05:57:27.445Z,100.00
2022-11-10T06:02:30.184Z,100.00
2022-11-10T06:07:32.986Z,100.00
2022-11-10T06:12:37.575Z,100.00
2022-11-10T06:17:40.314Z,100.00
2022-11-10T06:22:43.119Z,100.00
2022-11-10T06:27:47.184Z,100.00
2022-11-10T06:32:50.018Z,100.00
2022-11-10T06:38:00.266Z,100.00
2022-11-10T06:43:04.377Z,100.00
2022-11-10T06:48:09.261Z,100.00
2022-11-10T06:53:13.508Z,100.00
2022-11-10T06:58:18.239Z,100.00
2022-11-10T07:03:21.232Z,100.00
2022-11-10T07:08:24.213Z,100.00
2022-11-10T07:13:28.292Z,100.00
2022-11-10T07:18:31.021Z,100.00
2022-11-10T07:23:35.045Z,100.00
2022-11-10T07:28:39.191Z,100.00
2022-11-10T07:33:43.628Z,100.00
2022-11-10T07:38:46.501Z,100.00
2022-11-10T07:43:50.679Z,100.00
2022-11-10T07:48:54.250Z,100.00
2022-11-10T07:53:57.275Z,100.00
2022-11-10T07:59:01.370Z,100.00
2022-11-10T08:04:04.178Z,100.00
2022-11-10T08:09:07.035Z,100.00
2022-11-10T08:14:11.247Z,100.00
2022-11-10T08:19:14.318Z,100.00
2022-11-10T08:24:17.043Z,100.00
2022-11-10T08:29:21.210Z,100.00
2022-11-10T08:34:24.263Z,100.00
2022-11-10T08:39:38.744Z,100.00
2022-11-10T08:44:43.842Z,100.00
2022-11-10T08:49:46.611Z,100.00
2022-11-10T08:54:49.339Z,100.00
2022-11-10T08:59:53.432Z,100.00
2022-11-10T09:04:56.260Z,100.00
2022-11-10T09:10:07.397Z,100.00
2022-11-10T09:15:12.865Z,100.00
2022-11-10T09:20:15.901Z,100.00
2022-11-10T09:25:18.878Z,100.00
2022-11-10T09:30:23.526Z,100.00
2022-11-10T09:35:26.387Z,100.00
2022-11-10T09:40:38.292Z,100.00
2022-11-10T09:45:48.273Z,100.00
2022-11-10T09:50:56.450Z,100.00
2022-11-10T09:56:03.322Z,100.00
2022-11-10T10:01:23.821Z,100.00
2022-11-10T10:06:33.957Z,100.00
2022-11-10T10:11:57.942Z,100.00
2022-11-10T10:17:14.206Z,99.61
2022-11-10T10:22:43.301Z,99.30
2022-11-10T10:27:51.022Z,99.08
2022-11-10T10:33:01.198Z,99.27
2022-11-10T10:38:05.920Z,98.72
2022-11-10T10:43:08.657Z,98.60
2022-11-10T10:48:29.700Z,98.22
2022-11-10T10:53:32.466Z,97.85
2022-11-10T10:58:38.073Z,97.86
2022-11-10T11:03:45.094Z,98.11
2022-11-10T11:09:00.311Z,97.50
2022-11-10T11:14:15.575Z,97.38
2022-11-10T11:19:21.578Z,96.86
2022-11-10T11:24:34.182Z,96.66
2022-11-10T11:29:47.574Z,96.14
2022-11-10T11:35:01.342Z,95.88
2022-11-10T11:40:20.001Z,96.22
2022-11-10T11:45:33.083Z,95.73
2022-11-10T11:50:44.583Z,95.67
2022-11-10T11:56:04.522Z,95.35
2022-11-10T12:01:20.276Z,95.15
2022-11-10T12:06:36.625Z,95.00
2022-11-10T12:11:56.131Z,94.69
2022-11-10T12:17:07.854Z,94.98
2022-11-10T12:22:22.332Z,95.01
2022-11-10T12:27:29.120Z,94.83
2022-11-10T12:32:38.691Z,94.63
2022-11-10T12:37:47.618Z,94.67
2022-11-10T12:42:58.025Z,94.42
2022-11-10T12:48:02.202Z,94.06
2022-11-10T12:53:14.482Z,93.63
2022-11-10T12:58:17.508Z,93.59
2022-11-10T13:03:28.349Z,93.90
2022-11-10T13:08:36.847Z,94.26
2022-11-10T13:13:46.485Z,94.42
2022-11-10T13:18:57.981Z,94.71
2022-11-10T13:24:25.182Z,94.54
2022-11-10T13:29:32.165Z,94.21
2022-11-10T13:34:36.305Z,93.67
2022-11-10T13:39:41.169Z,93.56
2022-11-10T13:44:44.361Z,93.55
2022-11-10T13:49:58.555Z,93.68
2022-11-10T13:55:20.110Z,93.55
2022-11-10T14:00:27.120Z,93.69
2022-11-10T14:06:07.372Z,93.71
2022-11-10T14:11:36.336Z,93.61
2022-11-10T14:16:43.111Z,93.56
2022-11-10T14:21:55.410Z,93.71
2022-11-10T14:27:08.625Z,93.92
2022-11-10T14:32:18.750Z,94.42
2022-11-10T14:37:24.445Z,94.59
2022-11-10T14:42:31.513Z,94.75
2022-11-10T14:47:35.876Z,94.94
2022-11-10T14:52:40.780Z,95.05
2022-11-10T14:57:48.802Z,95.12
2022-11-10T15:02:52.465Z,95.31
2022-11-10T15:07:56.628Z,95.52
2022-11-10T15:13:03.267Z,95.56
2022-11-10T15:18:07.125Z,95.64
2022-11-10T15:23:23.052Z,95.77
2022-11-10T15:28:31.783Z,95.77
2022-11-10T15:33:36.909Z,95.91
2022-11-10T15:38:39.705Z,96.07
2022-11-10T15:43:43.870Z,96.18
2022-11-10T15:48:49.570Z,96.00
2022-11-10T15:53:53.380Z,96.41
2022-11-10T15:59:02.154Z,96.53
2022-11-10T16:04:05.587Z,96.53
2022-11-10T16:09:08.862Z,96.74
2022-11-10T16:14:16.545Z,96.80
2022-11-10T16:19:19.319Z,96.77
2022-11-10T16:24:22.038Z,96.74
2022-11-10T16:29:26.256Z,96.73
2022-11-10T16:34:28.994Z,96.79
2022-11-10T16:39:32.034Z,97.03
2022-11-10T16:44:41.292Z,97.17
2022-11-10T16:49:46.196Z,97.20
2022-11-10T16:54:48.931Z,97.33
2022-11-10T16:59:53.790Z,97.30
2022-11-10T17:04:56.730Z,97.28
2022-11-10T17:10:00.988Z,97.30
2022-11-10T17:15:05.802Z,97.04
2022-11-10T17:20:10.202Z,97.12
2022-11-10T17:25:20.913Z,96.93
2022-11-10T17:30:25.397Z,96.44
2022-11-10T17:35:28.342Z,96.28
2022-11-10T17:40:31.259Z,96.05
2022-11-10T17:45:35.368Z,95.43
2022-11-10T17:50:39.524Z,95.34
2022-11-10T17:55:42.227Z,95.05
2022-11-10T18:00:47.152Z,94.79
2022-11-10T18:05:50.300Z,94.56
2022-11-10T18:10:54.106Z,94.29
2022-11-10T18:16:00.752Z,94.19
2022-11-10T18:21:03.713Z,94.20
2022-11-10T18:26:08.220Z,94.00
2022-11-10T18:31:14.245Z,93.85
2022-11-10T18:36:17.064Z,93.65
2022-11-10T18:41:37.258Z,93.84
2022-11-10T18:46:41.463Z,93.86
2022-11-10T18:51:44.231Z,93.96
2022-11-10T18:56:47.034Z,93.92
2022-11-10T19:01:51.341Z,93.94
2022-11-10T19:06:54.123Z,94.00
2022-11-10T19:11:56.883Z,93.87
2022-11-10T19:17:00.987Z,93.79
2022-11-10T19:22:03.723Z,94.05
2022-11-10T19:27:07.356Z,94.03
2022-11-10T19:32:11.427Z,94.06
2022-11-10T19:37:14.143Z,94.01
2022-11-10T19:42:16.951Z,94.04
2022-11-10T19:47:21.065Z,93.87
2022-11-10T19:52:23.871Z,93.98
2022-11-10T19:57:27.973Z,94.06
2022-11-10T20:02:32.082Z,93.88
2022-11-10T20:07:52.099Z,93.81
2022-11-10T20:12:54.825Z,93.63
2022-11-10T20:17:58.920Z,93.77
2022-11-10T20:23:02.861Z,93.81
2022-11-10T20:28:07.011Z,93.75
2022-11-10T20:33:11.212Z,93.56
2022-11-10T20:38:15.922Z,93.74
2022-11-10T20:43:18.663Z,93.53
2022-11-10T20:48:22.832Z,93.66
2022-11-10T20:53:26.060Z,93.73
2022-11-10T20:58:29.569Z,93.83
2022-11-10T21:03:34.445Z,93.91
2022-11-10T21:08:37.295Z,93.92
2022-11-10T21:13:40.090Z,94.08
2022-11-10T21:18:44.156Z,94.15
2022-11-10T21:23:46.892Z,94.21
2022-11-10T21:28:49.614Z,94.17
2022-11-10T21:33:55.802Z,94.20
2022-11-10T21:38:59.126Z,94.27
2022-11-10T21:44:01.873Z,94.39
2022-11-10T21:49:07.936Z,94.30
2022-11-10T21:54:12.245Z,94.43
2022-11-10T21:59:15.005Z,94.36
2022-11-10T22:04:19.112Z,94.35
2022-11-10T22:09:35.734Z,94.35
2022-11-10T22:14:55.982Z,94.33
2022-11-10T22:20:00.167Z,94.41
2022-11-10T22:25:02.898Z,94.45
2022-11-10T22:30:06.456Z,94.52
2022-11-10T22:35:32.111Z,94.54
2022-11-10T22:40:54.062Z,94.53
2022-11-10T22:45:56.786Z,94.57
2022-11-10T22:51:01.479Z,94.73
2022-11-10T22:56:04.342Z,94.87
2022-11-10T23:01:08.457Z,94.99
2022-11-10T23:06:12.879Z,94.42
2022-11-10T23:11:20.149Z,94.42
2022-11-10T23:16:25.259Z,94.45
2022-11-10T23:21:31.094Z,94.26
2022-11-10T23:26:34.879Z,93.94
2022-11-10T23:31:37.679Z,93.61
2022-11-10T23:36:41.941Z,93.55
2022-11-10T23:41:44.674Z,93.31
2022-11-10T23:46:47.393Z,93.16
2022-11-10T23:51:51.532Z,93.38
2022-11-10T23:56:54.259Z,93.65
